Lobatos, Colorado
Current Conditions -  °F | °C
As of 11:52 PM on Friday 24 Oct 2014 (Local Time) from KALS Reporting Station
Clear Clear  
Wind Chill: 35°   Ceiling: Unl
Heat Index: 35°   Visibility: 10mi
Dew Point: 24°   Wind: 0mph
Humidity: 64%   Direction: NA
Pressure: 30.4"   Gusts: NA
Location:  37.1816°N, 106.262°W
Report Text: KALS 250552Z AUTO 00000KT 10SM CLR 02/M04 A3040 RMK AO2 SLP251 T00171044 10194 20011 51009
Loading
Personal Weather Stations






























Interactive Weather Map
Tropical Storm Tracking
New forecast layout! Learn more

10-Day Weather Forecast

Advertisements
Track Severe Weather on mobile